createdAt,value
2024-04-06T00:00:55.479Z,102.51
2024-04-06T00:02:03.434Z,102.03
2024-04-06T00:02:55.485Z,102.04
2024-04-06T00:03:55.492Z,102.03
2024-04-06T00:05:16.491Z,102.11
2024-04-06T00:05:55.487Z,102.07
2024-04-06T00:06:55.528Z,102.32
2024-04-06T00:08:23.948Z,103.04
2024-04-06T00:08:55.495Z,102.11
2024-04-06T00:09:55.512Z,102.54
2024-04-06T00:10:55.487Z,103.57
2024-04-06T00:11:55.494Z,104.37
2024-04-06T00:12:55.496Z,104.88
2024-04-06T00:13:55.496Z,103.91
2024-04-06T00:14:55.495Z,103.65
2024-04-06T00:15:55.498Z,103.61
2024-04-06T00:16:55.515Z,103.02
2024-04-06T00:17:55.502Z,102.89
2024-04-06T00:18:55.498Z,102.43
2024-04-06T00:19:55.509Z,103.32
2024-04-06T00:20:55.507Z,102.45
2024-04-06T00:21:55.497Z,102.21
2024-04-06T00:22:55.502Z,101.84
2024-04-06T00:23:55.507Z,102.34
2024-04-06T00:24:55.496Z,102.13
2024-04-06T00:25:55.502Z,101.59
2024-04-06T00:27:10.477Z,101.79
2024-04-06T00:27:55.511Z,101.82
2024-04-06T00:28:55.502Z,101.91
2024-04-06T00:30:16.515Z,102.10
2024-04-06T00:30:55.510Z,101.85
2024-04-06T00:31:55.503Z,102.11
2024-04-06T00:33:16.518Z,102.45
2024-04-06T00:33:55.506Z,101.87
2024-04-06T00:34:55.513Z,102.02
2024-04-06T00:35:55.509Z,102.35
2024-04-06T00:36:55.519Z,102.44
2024-04-06T00:37:55.516Z,102.95
2024-04-06T00:38:55.513Z,101.26
2024-04-06T00:39:55.525Z,100.99
2024-04-06T00:40:55.509Z,101.03
2024-04-06T00:41:55.514Z,100.75
2024-04-06T00:42:55.515Z,100.83
2024-04-06T00:43:55.512Z,100.57
2024-04-06T00:44:55.526Z,100.04
2024-04-06T00:45:55.509Z,99.43
2024-04-06T00:46:55.509Z,98.64
2024-04-06T00:47:55.513Z,98.69
2024-04-06T00:48:55.524Z,98.53
2024-04-06T00:49:55.521Z,98.21
2024-04-06T00:50:55.528Z,97.35
2024-04-06T00:51:55.511Z,98.37
2024-04-06T00:52:55.510Z,98.07
2024-04-06T00:53:55.517Z,97.14
2024-04-06T00:54:56.466Z,96.45
2024-04-06T00:55:55.513Z,95.83
2024-04-06T00:56:55.528Z,96.49
2024-04-06T00:58:23.469Z,95.76
2024-04-06T00:58:55.531Z,95.81
2024-04-06T00:59:55.525Z,96.07
2024-04-06T01:01:10.455Z,96.42
2024-04-06T01:02:04.104Z,95.86
2024-04-06T01:02:56.536Z,95.91
2024-04-06T01:03:55.534Z,96.40
2024-04-06T01:04:55.536Z,96.73
2024-04-06T01:05:55.534Z,97.56
2024-04-06T01:06:55.540Z,98.11
2024-04-06T01:07:55.543Z,97.74
2024-04-06T01:08:55.541Z,98.47
2024-04-06T01:09:55.536Z,98.43
2024-04-06T01:10:55.540Z,99.13
2024-04-06T01:11:55.538Z,98.29
2024-04-06T01:12:55.541Z,98.92
2024-04-06T01:13:55.542Z,98.77
2024-04-06T01:14:55.540Z,98.36
2024-04-06T01:15:55.539Z,98.58
2024-04-06T01:17:02.959Z,98.93
2024-04-06T01:17:55.541Z,98.95
2024-04-06T01:18:55.545Z,99.05
2024-04-06T01:19:55.548Z,99.00
2024-04-06T01:20:55.540Z,99.84
2024-04-06T01:21:55.548Z,100.23
2024-04-06T01:23:02.463Z,100.34
2024-04-06T01:23:55.544Z,100.39
2024-04-06T01:24:55.549Z,100.51
2024-04-06T01:26:10.484Z,100.71
2024-04-06T01:26:55.555Z,100.41
2024-04-06T01:27:55.559Z,100.62
2024-04-06T01:28:55.558Z,101.08
2024-04-06T01:29:55.563Z,101.33
2024-04-06T01:30:55.553Z,101.98
2024-04-06T01:31:55.567Z,102.85
2024-04-06T01:32:55.578Z,103.19
2024-04-06T01:33:55.546Z,102.22
2024-04-06T01:34:55.561Z,103.05
2024-04-06T01:35:55.550Z,103.44
2024-04-06T01:36:55.548Z,102.16
2024-04-06T01:37:55.545Z,101.54
2024-04-06T01:38:55.544Z,101.31
2024-04-06T01:39:55.553Z,101.46
2024-04-06T01:40:55.565Z,100.91
2024-04-06T01:41:55.573Z,101.26
2024-04-06T01:42:55.633Z,100.67
2024-04-06T01:43:55.578Z,99.83
2024-04-06T01:44:58.979Z,99.70
2024-04-06T01:45:55.598Z,99.70
2024-04-06T01:46:55.572Z,99.71
2024-04-06T01:48:11.990Z,99.26
2024-04-06T01:48:55.668Z,99.73
2024-04-06T01:49:55.646Z,99.82
2024-04-06T01:51:26.997Z,99.74
2024-04-06T01:51:55.602Z,99.74
2024-04-06T01:52:55.689Z,99.98
2024-04-06T01:54:18.489Z,100.25
2024-04-06T01:54:55.692Z,99.79
2024-04-06T01:55:55.677Z,100.22
2024-04-06T01:56:55.655Z,100.83
2024-04-06T01:57:55.650Z,102.17
2024-04-06T01:58:55.683Z,103.55
2024-04-06T01:59:55.583Z,104.80
2024-04-06T02:00:55.694Z,104.33
2024-04-06T02:01:55.612Z,105.45
2024-04-06T02:02:55.597Z,103.72
2024-04-06T02:03:55.593Z,104.08
2024-04-06T02:04:55.588Z,103.64
2024-04-06T02:05:55.588Z,103.46
2024-04-06T02:06:55.591Z,103.47
2024-04-06T02:07:55.585Z,103.76
2024-04-06T02:08:55.590Z,103.84
2024-04-06T02:09:55.594Z,104.23
2024-04-06T02:10:55.599Z,104.24
2024-04-06T02:11:55.597Z,105.00
2024-04-06T02:12:55.601Z,104.95
2024-04-06T02:13:55.606Z,105.68
2024-04-06T02:14:55.633Z,105.76
2024-04-06T02:16:10.486Z,106.20
2024-04-06T02:16:55.651Z,106.25
2024-04-06T02:17:55.664Z,106.42
2024-04-06T02:19:10.491Z,106.69
2024-04-06T02:19:55.672Z,106.29
2024-04-06T02:20:55.662Z,106.63
2024-04-06T02:21:55.664Z,107.28
2024-04-06T02:22:55.667Z,107.66
2024-04-06T02:23:55.681Z,108.29
2024-04-06T02:24:55.670Z,108.83
2024-04-06T02:25:55.672Z,108.99
2024-04-06T02:26:55.677Z,109.30
2024-04-06T02:27:55.681Z,109.13
2024-04-06T02:28:55.675Z,109.54
2024-04-06T02:29:55.679Z,109.29
2024-04-06T02:30:55.673Z,110.42
2024-04-06T02:31:55.695Z,109.33
2024-04-06T02:32:55.681Z,109.02
2024-04-06T02:33:55.675Z,109.73
2024-04-06T02:35:01.024Z,109.69
2024-04-06T02:35:55.682Z,109.72
2024-04-06T02:36:55.689Z,109.64
2024-04-06T02:37:55.688Z,109.90
2024-04-06T02:38:55.697Z,110.11
2024-04-06T02:39:55.708Z,109.90
2024-04-06T02:40:59.003Z,110.05
2024-04-06T02:41:55.731Z,110.25
2024-04-06T02:42:55.734Z,110.32
2024-04-06T02:44:22.008Z,110.65
2024-04-06T02:44:55.746Z,110.70
2024-04-06T02:45:55.761Z,110.87
2024-04-06T02:47:27.011Z,111.24
2024-04-06T02:47:55.747Z,110.71
2024-04-06T02:48:55.752Z,111.12
2024-04-06T02:49:55.751Z,111.63
2024-04-06T02:50:55.764Z,112.85
2024-04-06T02:51:55.763Z,113.02
2024-04-06T02:52:55.807Z,112.88
2024-04-06T02:53:55.762Z,112.52
2024-04-06T02:54:55.769Z,111.01
2024-04-06T02:55:55.758Z,110.87
2024-04-06T02:56:55.752Z,110.64
2024-04-06T02:57:55.774Z,110.61
2024-04-06T02:58:55.757Z,109.72
2024-04-06T02:59:55.763Z,109.61
2024-04-06T03:00:55.753Z,109.39
2024-04-06T03:01:55.755Z,109.67
2024-04-06T03:03:10.513Z,109.22
2024-04-06T03:03:55.753Z,109.26
2024-04-06T03:04:55.765Z,109.43
2024-04-06T03:06:02.512Z,109.54
2024-04-06T03:06:55.751Z,109.29
2024-04-06T03:07:55.764Z,109.52
2024-04-06T03:09:16.778Z,109.43
2024-04-06T03:09:55.764Z,109.29
2024-04-06T03:10:55.767Z,109.58
2024-04-06T03:12:16.771Z,109.94
2024-04-06T03:12:55.772Z,109.32
2024-04-06T03:13:55.777Z,109.79
2024-04-06T03:14:55.789Z,110.52
2024-04-06T03:15:55.783Z,111.61
2024-04-06T03:16:55.792Z,112.77
2024-04-06T03:17:55.788Z,112.74
2024-04-06T03:18:55.812Z,112.63
2024-04-06T03:19:55.801Z,111.84
2024-04-06T03:20:55.783Z,112.39
2024-04-06T03:21:55.786Z,111.88
2024-04-06T03:22:55.792Z,111.77
2024-04-06T03:23:55.786Z,112.25
2024-04-06T03:24:55.796Z,111.59
2024-04-06T03:25:55.794Z,111.40
2024-04-06T03:26:55.798Z,112.12
2024-04-06T03:27:55.807Z,111.80
2024-04-06T03:28:55.801Z,112.83
2024-04-06T03:29:55.804Z,112.14
2024-04-06T03:30:55.804Z,112.41
2024-04-06T03:31:55.823Z,111.91
2024-04-06T03:32:55.818Z,112.29
2024-04-06T03:34:02.523Z,111.88
2024-04-06T03:34:55.810Z,111.95
2024-04-06T03:35:55.797Z,112.08
2024-04-06T03:37:12.038Z,112.82
2024-04-06T03:37:55.812Z,111.97
2024-04-06T03:38:55.808Z,112.33
2024-04-06T03:40:27.533Z,112.97
2024-04-06T03:40:55.816Z,111.95
2024-04-06T03:41:55.843Z,112.52
2024-04-06T03:42:55.815Z,113.63
2024-04-06T03:43:55.821Z,114.98
2024-04-06T03:44:55.825Z,116.87
2024-04-06T03:45:55.814Z,118.31
2024-04-06T03:46:55.824Z,118.06
2024-04-06T03:47:55.819Z,117.54
2024-04-06T03:48:55.819Z,117.37
2024-04-06T03:49:55.823Z,117.59
2024-04-06T03:50:55.825Z,117.83
2024-04-06T03:51:55.828Z,118.50
2024-04-06T03:52:55.828Z,118.25
2024-04-06T03:53:55.827Z,118.12
2024-04-06T03:54:55.849Z,117.12
2024-04-06T03:56:10.533Z,118.04
2024-04-06T03:56:55.827Z,118.09
2024-04-06T03:57:55.834Z,118.24
2024-04-06T03:58:58.532Z,118.13
2024-04-06T03:59:55.839Z,118.08
2024-04-06T04:00:55.829Z,118.16
2024-04-06T04:01:58.529Z,118.24
2024-04-06T04:02:55.831Z,118.06
2024-04-06T04:03:55.831Z,118.19
2024-04-06T04:05:24.553Z,117.80
2024-04-06T04:05:55.838Z,118.10
2024-04-06T04:06:55.836Z,118.37
2024-04-06T04:07:55.848Z,118.72
2024-04-06T04:08:55.837Z,119.38
2024-04-06T04:09:55.841Z,119.57
2024-04-06T04:10:55.886Z,119.22
2024-04-06T04:11:55.843Z,118.37
2024-04-06T04:12:55.838Z,118.24
2024-04-06T04:13:55.841Z,119.48
2024-04-06T04:14:55.845Z,118.25
2024-04-06T04:15:55.837Z,118.34
2024-04-06T04:16:55.842Z,118.27
2024-04-06T04:17:55.834Z,118.68
2024-04-06T04:18:55.848Z,118.53
2024-04-06T04:19:55.850Z,119.40
2024-04-06T04:20:55.844Z,118.54
2024-04-06T04:21:55.839Z,118.16
2024-04-06T04:22:55.840Z,118.15
2024-04-06T04:24:02.551Z,119.07
2024-04-06T04:24:55.860Z,118.19
2024-04-06T04:25:55.845Z,118.40
2024-04-06T04:27:02.544Z,118.27
2024-04-06T04:28:09.763Z,50.00
2024-04-06T04:29:09.759Z,50.00
2024-04-06T04:30:09.768Z,50.00
2024-04-06T04:31:16.978Z,50.00
2024-04-06T04:32:16.973Z,50.00
2024-04-06T04:33:17.575Z,50.00
2024-04-06T04:34:16.981Z,50.00
2024-04-06T04:35:16.993Z,50.00
2024-04-06T04:36:23.585Z,51.28
2024-04-06T04:37:16.986Z,51.31
2024-04-06T04:38:16.984Z,50.40
2024-04-06T04:39:31.592Z,50.06
2024-04-06T04:40:17.183Z,51.40
2024-04-06T04:41:17.210Z,51.68
2024-04-06T04:42:38.234Z,51.66
2024-04-06T04:43:17.255Z,51.43
2024-04-06T04:44:35.333Z,51.96
2024-04-06T04:45:18.252Z,51.54
2024-04-06T04:46:17.237Z,52.15
2024-04-06T04:47:17.245Z,53.05
2024-04-06T04:48:17.266Z,53.45
2024-04-06T04:49:17.245Z,54.86
2024-04-06T04:50:17.249Z,52.36
2024-04-06T04:51:17.257Z,51.37
2024-04-06T04:52:17.252Z,51.76
2024-04-06T04:53:17.243Z,50.25
2024-04-06T04:54:17.258Z,52.34
2024-04-06T04:55:17.250Z,51.95
2024-04-06T04:56:17.252Z,52.59
2024-04-06T04:57:17.257Z,51.89
2024-04-06T04:58:24.082Z,52.23
2024-04-06T04:59:17.254Z,52.30
2024-04-06T05:00:17.261Z,52.55
2024-04-06T05:01:32.146Z,53.41
2024-04-06T05:02:17.274Z,52.39
2024-04-06T05:03:17.260Z,53.04
2024-04-06T05:04:32.085Z,54.59
2024-04-06T05:05:17.278Z,52.48
2024-04-06T05:06:17.272Z,53.77
2024-04-06T05:07:38.278Z,55.42
2024-04-06T05:08:17.288Z,52.52
2024-04-06T05:09:17.277Z,54.10
2024-04-06T05:10:17.295Z,57.03
2024-04-06T05:11:17.312Z,61.92
2024-04-06T05:12:17.294Z,66.17
2024-04-06T05:13:17.294Z,69.11
2024-04-06T05:14:17.291Z,67.29
2024-04-06T05:15:17.296Z,65.51
2024-04-06T05:16:17.297Z,66.22
2024-04-06T05:17:17.297Z,64.65
2024-04-06T05:18:17.301Z,64.17
2024-04-06T05:19:17.303Z,62.96
2024-04-06T05:20:17.309Z,63.20
2024-04-06T05:21:17.311Z,61.82
2024-04-06T05:22:17.309Z,61.42
2024-04-06T05:23:17.310Z,57.75
2024-04-06T05:24:17.313Z,57.56
2024-04-06T05:25:17.319Z,56.16
2024-04-06T05:26:17.318Z,54.24
2024-04-06T05:27:17.372Z,54.09
2024-04-06T05:28:17.326Z,54.83
2024-04-06T05:29:38.372Z,50.58
2024-04-06T05:30:17.323Z,50.73
2024-04-06T05:31:17.330Z,51.38
2024-04-06T05:32:17.330Z,52.46
2024-04-06T05:33:17.339Z,52.98
2024-04-06T05:34:17.349Z,54.13
2024-04-06T05:35:17.351Z,53.10
2024-04-06T05:36:17.341Z,50.00
2024-04-06T05:37:17.341Z,50.29
2024-04-06T05:38:17.336Z,50.00
2024-04-06T05:39:17.340Z,52.92
2024-04-06T05:40:17.365Z,52.41
2024-04-06T05:41:17.346Z,50.41
2024-04-06T05:42:17.345Z,53.46
2024-04-06T05:43:17.343Z,52.64
2024-04-06T05:44:17.345Z,54.07
2024-04-06T05:45:17.356Z,52.77
2024-04-06T05:46:17.355Z,54.13
2024-04-06T05:47:17.349Z,53.83
2024-04-06T05:48:17.349Z,53.46
2024-04-06T05:49:17.354Z,55.46
2024-04-06T05:50:17.356Z,58.05
2024-04-06T05:51:17.347Z,52.35
2024-04-06T05:52:17.354Z,57.87
2024-04-06T05:53:17.353Z,54.84
2024-04-06T05:54:20.106Z,61.60
2024-04-06T05:55:17.380Z,59.46
2024-04-06T05:56:17.365Z,60.36
2024-04-06T05:57:38.373Z,63.25
2024-04-06T05:58:17.372Z,61.79
2024-04-06T05:59:17.369Z,63.09
2024-04-06T06:00:35.648Z,65.43
2024-04-06T06:01:17.378Z,62.00
2024-04-06T06:02:17.374Z,64.28
2024-04-06T06:03:17.375Z,66.42
2024-04-06T06:04:17.386Z,73.67
2024-04-06T06:05:17.378Z,75.63
2024-04-06T06:06:17.368Z,82.12
2024-04-06T06:07:17.378Z,80.02
2024-04-06T06:08:17.383Z,80.64
2024-04-06T06:09:17.380Z,82.34
2024-04-06T06:10:17.381Z,78.74
2024-04-06T06:11:17.402Z,81.11
2024-04-06T06:12:17.389Z,81.79
2024-04-06T06:13:17.383Z,80.13
2024-04-06T06:14:19.092Z,80.76
2024-04-06T06:15:17.387Z,80.81
2024-04-06T06:16:24.122Z,81.08
2024-04-06T06:17:17.396Z,80.88
2024-04-06T06:18:17.391Z,81.45
2024-04-06T06:19:32.118Z,82.09
2024-04-06T06:20:17.398Z,80.91
2024-04-06T06:21:17.391Z,81.77
2024-04-06T06:22:24.120Z,83.95
2024-04-06T06:23:17.409Z,81.05
2024-04-06T06:24:17.398Z,82.19
2024-04-06T06:25:43.634Z,83.96
2024-04-06T06:26:17.409Z,81.04
2024-04-06T06:27:17.403Z,82.57
2024-04-06T06:28:17.405Z,84.85
2024-04-06T06:29:17.402Z,87.58
2024-04-06T06:30:17.406Z,94.50
2024-04-06T06:31:17.406Z,94.81
2024-04-06T06:32:17.420Z,95.45
2024-04-06T06:33:17.448Z,94.46
2024-04-06T06:34:17.453Z,94.15
2024-04-06T06:35:17.482Z,92.89
2024-04-06T06:38:17.512Z,91.98
2024-04-06T06:41:17.485Z,92.09
2024-04-06T06:42:17.490Z,92.45
2024-04-06T06:43:17.497Z,92.37
2024-04-06T06:44:17.492Z,93.86
2024-04-06T06:45:17.508Z,91.69
2024-04-06T06:46:17.508Z,92.30
2024-04-06T06:47:17.519Z,92.60
2024-04-06T06:48:17.561Z,93.16
2024-04-06T06:49:17.529Z,90.31
2024-04-06T06:50:41.669Z,91.19
2024-04-06T06:51:17.508Z,91.33
2024-04-06T06:52:17.528Z,92.05
2024-04-06T06:53:38.575Z,93.03
2024-04-06T06:54:17.523Z,91.44
2024-04-06T06:55:17.532Z,92.57
2024-04-06T06:56:17.527Z,94.78
2024-04-06T06:57:17.523Z,95.96
2024-04-06T06:58:17.534Z,99.82
2024-04-06T06:59:17.540Z,98.63
2024-04-06T07:01:17.542Z,96.38
2024-04-06T07:02:17.540Z,96.16
2024-04-06T07:03:17.535Z,95.82
2024-04-06T07:04:17.539Z,93.00
2024-04-06T07:05:17.556Z,93.98
2024-04-06T07:07:06.629Z,93.31
2024-04-06T07:07:18.554Z,93.29
2024-04-06T07:08:17.551Z,93.61
2024-04-06T07:09:24.137Z,91.46
2024-04-06T07:10:17.595Z,93.37
2024-04-06T07:11:17.558Z,89.02
2024-04-06T07:12:38.566Z,89.99
2024-04-06T07:13:17.577Z,93.37
2024-04-06T07:14:17.567Z,93.49
2024-04-06T07:15:17.567Z,94.07
2024-04-06T07:16:17.568Z,93.62
2024-04-06T07:17:17.565Z,91.19
2024-04-06T07:18:45.154Z,91.77
2024-04-06T07:19:17.577Z,91.90
2024-04-06T07:20:17.582Z,92.42
2024-04-06T07:21:17.584Z,93.38
2024-04-06T07:22:17.585Z,93.52
2024-04-06T07:23:17.589Z,96.12
2024-04-06T07:24:17.596Z,95.08
2024-04-06T07:25:17.593Z,93.59
2024-04-06T07:26:17.593Z,92.45
2024-04-06T07:27:17.590Z,93.83
2024-04-06T07:28:17.593Z,91.87
2024-04-06T07:29:17.594Z,92.09
2024-04-06T07:30:17.600Z,90.63
2024-04-06T07:31:17.596Z,90.28
2024-04-06T07:32:17.590Z,89.55
2024-04-06T07:33:17.590Z,90.62
2024-04-06T07:34:17.603Z,89.54
2024-04-06T07:35:17.629Z,88.41
2024-04-06T07:36:17.603Z,88.20
2024-04-06T07:37:32.155Z,89.49
2024-04-06T07:38:20.666Z,89.64
2024-04-06T07:39:20.530Z,89.76
2024-04-06T07:40:36.164Z,89.64
2024-04-06T07:41:17.775Z,89.70
2024-04-06T07:42:17.775Z,90.36
2024-04-06T07:43:38.787Z,91.13
2024-04-06T07:44:17.791Z,89.69
2024-04-06T07:45:17.797Z,90.60
2024-04-06T07:46:17.793Z,91.64
2024-04-06T07:47:17.789Z,93.00
2024-04-06T07:48:17.794Z,93.52
2024-04-06T07:49:17.807Z,92.99
2024-04-06T07:50:17.803Z,94.37
2024-04-06T07:51:17.812Z,91.69
2024-04-06T07:52:17.803Z,91.86
2024-04-06T07:53:17.800Z,88.97
2024-04-06T07:54:17.806Z,88.41
2024-04-06T07:55:17.803Z,86.91
2024-04-06T07:56:17.805Z,87.31
2024-04-06T07:57:17.810Z,86.07
2024-04-06T07:58:17.818Z,84.01
2024-04-06T07:59:24.666Z,83.44
2024-04-06T08:00:17.838Z,83.61
2024-04-06T08:01:17.813Z,81.07
2024-04-06T08:02:24.673Z,82.94
2024-04-06T08:03:17.821Z,83.48
2024-04-06T08:04:17.825Z,82.01
2024-04-06T08:05:36.175Z,82.66
2024-04-06T08:06:17.827Z,83.56
2024-04-06T08:07:17.828Z,83.75
2024-04-06T08:08:39.668Z,80.63
2024-04-06T08:09:17.845Z,83.57
2024-04-06T08:10:17.881Z,83.79
2024-04-06T08:11:41.674Z,81.75
2024-04-06T08:12:17.841Z,83.57
2024-04-06T08:13:17.849Z,83.85
2024-04-06T08:14:24.345Z,83.78
2024-04-06T08:15:18.861Z,83.46
2024-04-06T08:16:17.844Z,80.98
2024-04-06T08:17:17.849Z,78.51
2024-04-06T08:18:17.867Z,75.45
2024-04-06T08:19:17.858Z,72.46
2024-04-06T08:20:17.873Z,70.62
2024-04-06T08:21:17.870Z,69.56
2024-04-06T08:22:17.866Z,68.71
2024-04-06T08:23:17.859Z,68.46
2024-04-06T08:24:18.682Z,66.97
2024-04-06T08:25:17.925Z,65.08
2024-04-06T08:26:17.985Z,62.90
2024-04-06T08:27:18.052Z,63.30
2024-04-06T08:28:18.111Z,61.52
2024-04-06T08:29:18.192Z,55.73
2024-04-06T08:30:18.276Z,56.87
2024-04-06T08:31:18.311Z,53.60
2024-04-06T08:32:18.387Z,53.00
2024-04-06T08:33:25.183Z,52.69
2024-04-06T08:34:18.477Z,52.72
2024-04-06T08:35:18.451Z,51.25
2024-04-06T08:36:33.201Z,52.32
2024-04-06T08:37:18.447Z,52.75
2024-04-06T08:38:18.444Z,51.92
2024-04-06T08:39:18.447Z,49.91
2024-04-06T08:40:18.510Z,47.49
2024-04-06T08:41:18.471Z,48.53
2024-04-06T08:42:18.467Z,50.83
2024-04-06T08:43:18.448Z,50.82
2024-04-06T08:44:18.447Z,52.02
2024-04-06T08:45:18.463Z,52.71
2024-04-06T08:46:18.468Z,50.00
2024-04-06T08:47:18.461Z,50.00
2024-04-06T08:48:18.472Z,52.10
2024-04-06T08:49:18.479Z,50.98
2024-04-06T08:50:18.460Z,51.33
2024-04-06T08:51:18.470Z,50.96
2024-04-06T08:52:18.470Z,51.04
2024-04-06T08:53:18.463Z,51.05
2024-04-06T08:54:18.480Z,51.28
2024-04-06T08:55:18.488Z,53.48
2024-04-06T08:56:18.463Z,50.35
2024-04-06T08:57:18.475Z,50.00
2024-04-06T08:58:25.194Z,53.38
2024-04-06T08:59:18.466Z,53.42
2024-04-06T09:00:18.471Z,51.75
2024-04-06T09:01:46.196Z,52.52
2024-04-06T09:02:18.487Z,53.50
2024-04-06T09:03:18.478Z,54.26
2024-04-06T09:04:33.200Z,54.43
2024-04-06T09:05:18.495Z,53.57
2024-04-06T09:06:18.504Z,53.84
2024-04-06T09:07:18.493Z,54.02
2024-04-06T09:08:18.489Z,54.15
2024-04-06T09:09:18.488Z,54.67
2024-04-06T09:10:18.562Z,52.81
2024-04-06T09:11:18.504Z,51.60
2024-04-06T09:12:18.494Z,51.66
2024-04-06T09:13:18.515Z,51.96
2024-04-06T09:14:18.488Z,54.48
2024-04-06T09:15:18.506Z,52.18
2024-04-06T09:16:18.570Z,50.72
2024-04-06T09:17:18.502Z,51.25
2024-04-06T09:18:18.502Z,50.72
2024-04-06T09:19:18.510Z,51.46
2024-04-06T09:20:23.711Z,50.03
2024-04-06T09:21:18.512Z,50.08
2024-04-06T09:22:18.553Z,50.12
2024-04-06T09:23:25.210Z,50.19
2024-04-06T09:24:18.516Z,50.05
2024-04-06T09:25:18.520Z,50.21
2024-04-06T09:26:29.217Z,50.61
2024-04-06T09:27:18.511Z,50.14
2024-04-06T09:28:18.541Z,50.48
2024-04-06T09:29:33.210Z,51.16
2024-04-06T09:30:18.526Z,50.16
2024-04-06T09:31:18.538Z,50.57
2024-04-06T09:32:18.532Z,51.37
2024-04-06T09:33:18.536Z,51.09
2024-04-06T09:34:18.548Z,51.75
2024-04-06T09:35:18.534Z,51.49
2024-04-06T09:36:18.538Z,51.49
2024-04-06T09:37:18.550Z,51.61
2024-04-06T09:38:18.548Z,52.81
2024-04-06T09:39:18.539Z,54.29
2024-04-06T09:40:18.592Z,53.52
2024-04-06T09:41:18.546Z,51.85
2024-04-06T09:42:18.543Z,55.07
2024-04-06T09:43:18.561Z,55.27
2024-04-06T09:44:18.552Z,52.26
2024-04-06T09:45:18.553Z,52.12
2024-04-06T09:46:18.588Z,52.04
2024-04-06T09:47:18.539Z,51.93
2024-04-06T09:48:21.219Z,52.97
2024-04-06T09:49:18.582Z,52.97
2024-04-06T09:50:18.567Z,53.07
2024-04-06T09:51:39.562Z,53.15
2024-04-06T09:52:18.572Z,53.12
2024-04-06T09:53:18.583Z,53.77
2024-04-06T09:54:33.223Z,54.21
2024-04-06T09:55:18.602Z,53.22
2024-04-06T09:56:18.563Z,54.14
2024-04-06T09:57:39.578Z,55.48
2024-04-06T09:58:18.632Z,53.22
2024-04-06T09:59:18.577Z,54.47
2024-04-06T10:00:18.578Z,56.70
2024-04-06T10:01:18.652Z,59.29
2024-04-06T10:02:18.592Z,61.21
2024-04-06T10:03:18.579Z,61.40
2024-04-06T10:04:18.599Z,62.43
2024-04-06T10:05:18.584Z,64.14
2024-04-06T10:06:18.589Z,63.00
2024-04-06T10:07:18.689Z,62.46
2024-04-06T10:08:18.593Z,63.31
2024-04-06T10:09:18.594Z,61.88
2024-04-06T10:10:18.625Z,61.45
2024-04-06T10:11:18.615Z,63.46
2024-04-06T10:12:18.602Z,60.15
2024-04-06T10:13:18.644Z,59.72
2024-04-06T10:14:19.482Z,58.90
2024-04-06T10:15:18.608Z,59.63
2024-04-06T10:16:21.234Z,57.80
2024-04-06T10:17:18.630Z,57.83
2024-04-06T10:18:18.608Z,58.10
2024-04-06T10:19:33.234Z,58.83
2024-04-06T10:20:18.625Z,57.97
2024-04-06T10:21:18.604Z,58.27
2024-04-06T10:22:18.672Z,59.31
2024-04-06T10:23:18.626Z,59.10
2024-04-06T10:24:18.615Z,60.98
2024-04-06T10:25:18.679Z,61.04
2024-04-06T10:26:18.619Z,60.59
2024-04-06T10:27:18.626Z,60.73
2024-04-06T10:28:18.649Z,62.14
2024-04-06T10:29:18.621Z,59.72
2024-04-06T10:30:18.626Z,57.94
2024-04-06T10:31:20.802Z,59.23
2024-04-06T10:32:19.638Z,59.28
2024-04-06T10:33:18.632Z,58.78
2024-04-06T10:34:18.655Z,59.53
2024-04-06T10:35:18.639Z,59.80
2024-04-06T10:36:18.639Z,58.27
2024-04-06T10:37:18.669Z,58.36
2024-04-06T10:38:18.652Z,58.74
2024-04-06T10:39:18.638Z,58.09
2024-04-06T10:40:18.716Z,58.25
2024-04-06T10:41:18.713Z,59.61
2024-04-06T10:42:18.786Z,61.75
2024-04-06T10:43:18.867Z,59.92
2024-04-06T10:44:39.900Z,61.37
2024-04-06T10:45:18.914Z,61.47
2024-04-06T10:46:18.970Z,61.81
2024-04-06T10:47:33.752Z,62.01
2024-04-06T10:48:18.912Z,61.55
2024-04-06T10:49:18.949Z,62.12
2024-04-06T10:50:39.932Z,63.11
2024-04-06T10:51:18.918Z,61.58
2024-04-06T10:52:18.943Z,62.59
2024-04-06T10:53:18.939Z,63.62
2024-04-06T10:54:18.927Z,66.12
2024-04-06T10:55:18.978Z,69.47
2024-04-06T10:56:18.937Z,70.12
2024-04-06T10:57:18.924Z,64.95
2024-04-06T10:58:18.984Z,66.63
2024-04-06T10:59:18.933Z,66.80
2024-04-06T11:00:18.934Z,67.49
2024-04-06T11:01:19.005Z,66.41
2024-04-06T11:02:18.925Z,64.88
2024-04-06T11:03:18.929Z,65.35
2024-04-06T11:04:19.000Z,66.68
2024-04-06T11:05:18.927Z,65.66
2024-04-06T11:06:18.939Z,65.33
2024-04-06T11:07:18.969Z,65.77
2024-04-06T11:08:18.942Z,65.62
2024-04-06T11:09:25.759Z,65.55
2024-04-06T11:10:19.007Z,65.06
2024-04-06T11:11:18.940Z,65.97
2024-04-06T11:12:39.949Z,66.03
2024-04-06T11:13:18.992Z,65.69
2024-04-06T11:14:18.952Z,66.30
2024-04-06T11:15:33.764Z,66.74
2024-04-06T11:16:18.975Z,65.77
2024-04-06T11:17:18.952Z,66.84
2024-04-06T11:18:18.962Z,68.30
2024-04-06T11:19:19.063Z,70.40
2024-04-06T11:20:18.969Z,74.36
2024-04-06T11:21:18.970Z,74.19
2024-04-06T11:22:18.993Z,76.59
2024-04-06T11:23:18.963Z,74.05
2024-04-06T11:24:18.962Z,75.69
2024-04-06T11:25:19.062Z,73.69
2024-04-06T11:26:18.969Z,74.65
2024-04-06T11:27:18.976Z,73.72
2024-04-06T11:28:18.999Z,72.94
2024-04-06T11:29:18.975Z,76.06
2024-04-06T11:30:18.971Z,73.98
2024-04-06T11:31:19.028Z,73.36
2024-04-06T11:32:18.983Z,75.76
2024-04-06T11:33:18.977Z,72.87
2024-04-06T11:34:19.018Z,73.84
2024-04-06T11:35:18.975Z,73.57
2024-04-06T11:36:18.980Z,72.38
2024-04-06T11:37:21.785Z,72.99
2024-04-06T11:38:18.979Z,72.93
2024-04-06T11:39:18.983Z,73.31
2024-04-06T11:40:33.781Z,73.23
2024-04-06T11:41:19.004Z,73.30
2024-04-06T11:42:18.994Z,73.66
2024-04-06T11:43:39.995Z,74.10
2024-04-06T11:44:18.991Z,73.41
2024-04-06T11:45:19.005Z,74.03
2024-04-06T11:46:19.013Z,74.85
2024-04-06T11:47:18.999Z,75.43
2024-04-06T11:48:19.026Z,76.21
2024-04-06T11:49:19.050Z,78.12
2024-04-06T11:50:19.005Z,75.24
2024-04-06T11:51:19.013Z,74.72
2024-04-06T11:52:19.040Z,72.44
2024-04-06T11:53:19.034Z,70.13
2024-04-06T11:54:19.014Z,70.93
2024-04-06T11:55:19.079Z,67.71
2024-04-06T11:56:19.029Z,64.65
2024-04-06T11:57:19.027Z,64.05
2024-04-06T11:58:19.063Z,61.28
2024-04-06T11:59:19.024Z,64.22
2024-04-06T12:00:21.819Z,58.61
2024-04-06T12:01:19.055Z,56.47
2024-04-06T12:02:19.036Z,57.15
2024-04-06T12:03:19.035Z,58.73
2024-04-06T12:04:19.093Z,55.98
2024-04-06T12:05:25.812Z,53.04
2024-04-06T12:06:19.041Z,54.12
2024-04-06T12:07:19.077Z,50.05
2024-04-06T12:08:40.054Z,49.54
2024-04-06T12:09:19.044Z,56.20
2024-04-06T12:10:19.076Z,49.98
2024-04-06T12:11:19.054Z,47.16
2024-04-06T12:12:19.046Z,47.62
2024-04-06T12:13:19.098Z,44.15
2024-04-06T12:14:19.054Z,50.00
2024-04-06T12:15:19.064Z,51.30
2024-04-06T12:16:19.085Z,51.42
2024-04-06T12:17:19.059Z,51.49
2024-04-06T12:18:19.059Z,50.93
2024-04-06T12:19:19.094Z,53.58
2024-04-06T12:20:19.062Z,52.22
2024-04-06T12:21:19.087Z,50.00
2024-04-06T12:22:19.086Z,50.18
2024-04-06T12:23:19.064Z,50.69
2024-04-06T12:24:21.796Z,50.00
2024-04-06T12:25:19.082Z,45.91
2024-04-06T12:26:19.075Z,44.24
2024-04-06T12:27:21.796Z,40.88
2024-04-06T12:28:19.143Z,41.51
2024-04-06T12:29:19.079Z,41.03
2024-04-06T12:30:33.800Z,38.02
2024-04-06T12:31:19.127Z,40.21
2024-04-06T12:32:19.081Z,37.94
2024-04-06T12:33:46.804Z,36.57
2024-04-06T12:34:19.131Z,45.34
2024-04-06T12:35:19.082Z,38.08
2024-04-06T12:36:47.809Z,35.87
2024-04-06T12:37:19.103Z,47.63
2024-04-06T12:38:19.094Z,40.80
2024-04-06T12:39:19.089Z,41.68
2024-04-06T12:40:19.138Z,39.72
2024-04-06T12:41:19.096Z,36.63
2024-04-06T12:42:19.086Z,48.02
2024-04-06T12:43:19.154Z,52.74
2024-04-06T12:44:19.098Z,50.29
2024-04-06T12:45:19.100Z,51.62
2024-04-06T12:46:19.106Z,51.10
2024-04-06T12:47:19.097Z,51.55
2024-04-06T12:48:19.108Z,50.43
2024-04-06T12:49:19.166Z,52.96
2024-04-06T12:50:19.111Z,50.30
2024-04-06T12:51:19.113Z,51.16